This is the latest recevied weather packets stored in our database for station/object W2SBL-1. If no packets are shown the sender has not sent any weather packets the latest 10 day(s).
| Time | Temp. | Humidity | Pressure | Rain* | Wind** | Luminosity | Snow |
|---|---|---|---|---|---|---|---|
| 1777880538 | 12.22° C | 38% | 1012.7 hPa | - | - | - | - |
| 1777879638 | 12.22° C | 38% | 1012.6 hPa | - | - | - | - |
| 1777878737 | 12.22° C | 38% | 1012.4 hPa | - | - | - | - |
| 1777877837 | 12.22° C | 37% | 1012.5 hPa | - | - | - | - |
| 1777876937 | 12.22° C | 37% | 1012.2 hPa | - | - | - | - |
| 1777876037 | 12.78° C | 37% | 1012.3 hPa | - | - | - | - |
| 1777875137 | 12.22° C | 37% | 1012.3 hPa | - | - | - | - |
| 1777874237 | 12.22° C | 37% | 1012.2 hPa | - | - | - | - |
| 1777873337 | 12.22° C | 36% | 1012.2 hPa | - | - | - | - |
| 1777872437 | 12.22° C | 37% | 1012.1 hPa | - | - | - | - |
| 1777871537 | 12.22° C | 36% | 1012 hPa | - | - | - | - |
| 1777870637 | 11.67° C | 36% | 1012.1 hPa | - | - | - | - |
| 1777869737 | 11.11° C | 37% | 1012.2 hPa | - | - | - | - |
| 1777868837 | 10.56° C | 37% | 1012.1 hPa | - | - | - | - |
| 1777867936 | 10.56° C | 38% | 1012 hPa | - | - | - | - |
| 1777867036 | 10.56° C | 38% | 1012 hPa | - | - | - | - |
| 1777866136 | 10.56° C | 38% | 1012 hPa | - | - | - | - |
| 1777865236 | 11.11° C | 38% | 1011.9 hPa | - | - | - | - |
| 1777864336 | 11.11° C | 38% | 1011.9 hPa | - | - | - | - |
| 1777863436 | 11.11° C | 37% | 1011.8 hPa | - | - | - | - |
| 1777862536 | 11.11° C | 38% | 1011.9 hPa | - | - | - | - |
| 1777861636 | 11.11° C | 38% | 1011.8 hPa | - | - | - | - |
| 1777860736 | -3.89° C | 38% | 987.4 hPa | - | - | - | - |
| 1777859836 | 11.67° C | 38% | 1011.7 hPa | - | - | - | - |
| 1777858936 | 11.67° C | 38% | 1011.7 hPa | - | - | - | - |
* Rain since midnight (hover to see other rain measurements)
** Current wind speed in m/s (hover to see current wind gust speed)